createdAt,value
2023-03-15T00:01:29.174Z,0.80
2023-03-15T00:03:56.493Z,1.10
2023-03-15T00:06:23.944Z,1.07
2023-03-15T00:08:52.152Z,1.00
2023-03-15T00:11:19.710Z,1.20
2023-03-15T00:13:48.090Z,0.70
2023-03-15T00:16:18.710Z,0.80
2023-03-15T00:18:47.434Z,1.47
2023-03-15T00:21:15.020Z,1.03
2023-03-15T00:23:42.264Z,0.60
2023-03-15T00:26:09.437Z,0.77
2023-03-15T00:28:36.647Z,0.80
2023-03-15T00:31:22.942Z,0.83
2023-03-15T00:33:53.945Z,1.00
2023-03-15T00:36:24.515Z,0.80
2023-03-15T00:38:54.508Z,0.70
2023-03-15T00:41:22.790Z,0.80
2023-03-15T00:43:50.034Z,0.70
2023-03-15T00:46:18.625Z,0.87
2023-03-15T00:48:48.726Z,0.60
2023-03-15T00:51:19.558Z,0.70
2023-03-15T00:53:47.513Z,0.60
2023-03-15T00:56:17.700Z,0.70
2023-03-15T00:58:45.157Z,0.90
2023-03-15T01:01:17.481Z,0.80
2023-03-15T01:03:45.835Z,1.10
2023-03-15T01:06:16.248Z,1.10
2023-03-15T01:08:44.730Z,0.60
2023-03-15T01:11:19.045Z,1.00
2023-03-15T01:13:46.419Z,0.60
2023-03-15T01:16:14.916Z,0.60
2023-03-15T01:18:43.667Z,0.80
2023-03-15T01:21:12.936Z,1.10
2023-03-15T01:23:41.234Z,0.77
2023-03-15T01:26:12.814Z,1.30
2023-03-15T01:28:40.354Z,0.70
2023-03-15T01:31:09.985Z,0.70
2023-03-15T01:33:37.259Z,1.10
2023-03-15T01:36:07.393Z,0.80
2023-03-15T01:38:35.630Z,0.70
2023-03-15T01:41:02.998Z,0.53
2023-03-15T01:43:32.184Z,0.97
2023-03-15T01:46:02.748Z,0.60
2023-03-15T01:48:44.977Z,0.80
2023-03-15T01:51:21.778Z,0.80
2023-03-15T01:54:33.370Z,0.80
2023-03-15T01:57:25.448Z,0.70
2023-03-15T02:00:14.019Z,0.80
2023-03-15T02:02:55.048Z,0.67
2023-03-15T02:05:30.259Z,0.77
2023-03-15T02:07:57.619Z,0.87
2023-03-15T02:10:33.174Z,0.90
2023-03-15T02:13:03.800Z,0.77
2023-03-15T02:15:31.557Z,0.80
2023-03-15T02:18:03.432Z,0.87
2023-03-15T02:21:00.547Z,0.80
2023-03-15T02:23:29.400Z,0.63
2023-03-15T02:26:25.105Z,0.60
2023-03-15T02:28:53.877Z,0.50
2023-03-15T02:31:21.961Z,0.70
2023-03-15T02:33:55.648Z,0.57
2023-03-15T02:36:29.852Z,0.67
2023-03-15T02:38:57.913Z,0.70
2023-03-15T02:41:30.105Z,0.50
2023-03-15T02:44:21.230Z,0.70
2023-03-15T02:46:52.011Z,1.23
2023-03-15T02:49:25.730Z,0.60
2023-03-15T02:51:52.905Z,1.20
2023-03-15T02:54:20.089Z,1.07
2023-03-15T02:56:47.212Z,0.60
2023-03-15T02:59:15.665Z,0.60
2023-03-15T03:01:46.041Z,0.60
2023-03-15T03:04:13.547Z,0.67
2023-03-15T03:06:43.989Z,0.60
2023-03-15T03:09:13.986Z,0.60
2023-03-15T03:11:42.714Z,0.53
2023-03-15T03:14:09.977Z,0.60
2023-03-15T03:16:37.066Z,0.60
2023-03-15T03:19:04.400Z,1.00
2023-03-15T03:21:32.739Z,0.73
2023-03-15T03:23:59.923Z,0.83
2023-03-15T03:26:28.258Z,0.70
2023-03-15T03:28:57.617Z,0.90
2023-03-15T03:31:28.057Z,0.90
2023-03-15T03:33:57.140Z,0.70
2023-03-15T03:36:25.151Z,0.67
2023-03-15T03:38:53.904Z,0.83
2023-03-15T03:41:22.069Z,0.80
2023-03-15T03:43:49.529Z,0.70
2023-03-15T03:46:17.177Z,0.70
2023-03-15T03:48:49.363Z,0.80
2023-03-15T03:51:16.554Z,0.90
2023-03-15T03:53:43.907Z,1.00
2023-03-15T03:56:11.519Z,1.20
2023-03-15T03:58:38.886Z,0.80
2023-03-15T04:01:15.556Z,0.80
2023-03-15T04:03:42.885Z,0.80
2023-03-15T04:06:15.846Z,0.70
2023-03-15T04:08:45.761Z,0.73
2023-03-15T04:11:18.125Z,0.93
2023-03-15T04:13:51.406Z,0.70
2023-03-15T04:16:18.827Z,0.70
2023-03-15T04:18:56.684Z,0.63
2023-03-15T04:21:24.555Z,0.70
2023-03-15T04:23:56.334Z,0.70
2023-03-15T04:26:43.590Z,0.60
2023-03-15T04:29:39.635Z,0.47
2023-03-15T04:32:33.180Z,0.80
2023-03-15T04:35:18.639Z,0.70
2023-03-15T04:37:55.129Z,0.80
2023-03-15T04:40:42.914Z,0.80
2023-03-15T04:43:26.294Z,0.60
2023-03-15T04:46:05.639Z,0.60
2023-03-15T04:49:03.520Z,0.70
2023-03-15T04:51:47.987Z,0.70
2023-03-15T04:54:53.855Z,0.70
2023-03-15T04:57:49.756Z,0.67
2023-03-15T05:00:36.038Z,0.50
2023-03-15T05:03:21.924Z,0.67
2023-03-15T05:05:56.960Z,0.70
2023-03-15T05:08:45.498Z,0.70
2023-03-15T05:11:12.942Z,0.70
2023-03-15T05:14:06.117Z,0.70
2023-03-15T05:16:52.473Z,0.80
2023-03-15T05:19:39.998Z,0.60
2023-03-15T05:22:26.036Z,1.30
2023-03-15T05:25:12.267Z,0.50
2023-03-15T05:28:05.073Z,0.90
2023-03-15T05:30:44.288Z,0.60
2023-03-15T05:33:28.031Z,0.70
2023-03-15T05:36:15.446Z,0.80
2023-03-15T05:39:18.821Z,0.60
2023-03-15T05:42:02.172Z,1.03
2023-03-15T05:44:53.475Z,0.73
2023-03-15T05:47:29.660Z,0.70
2023-03-15T05:50:09.225Z,0.60
2023-03-15T05:53:00.041Z,0.60
2023-03-15T05:55:39.878Z,0.50
2023-03-15T05:58:25.769Z,0.50
2023-03-15T06:01:04.963Z,0.50
2023-03-15T06:04:05.227Z,0.60
2023-03-15T06:06:34.335Z,0.63
2023-03-15T06:09:04.241Z,0.60
2023-03-15T06:11:31.974Z,0.80
2023-03-15T06:14:00.347Z,0.70
2023-03-15T06:16:36.025Z,0.90
2023-03-15T06:19:04.551Z,0.90
2023-03-15T06:21:32.440Z,0.70
2023-03-15T06:24:00.796Z,0.70
2023-03-15T06:26:27.998Z,0.70
2023-03-15T06:29:00.108Z,0.50
2023-03-15T06:31:27.329Z,0.60
2023-03-15T06:34:02.108Z,0.53
2023-03-15T06:36:31.506Z,0.60
2023-03-15T06:38:58.782Z,0.67
2023-03-15T06:41:27.081Z,0.70
2023-03-15T06:44:01.208Z,1.20
2023-03-15T06:46:28.639Z,1.50
2023-03-15T06:48:56.501Z,1.50
2023-03-15T06:51:24.096Z,0.80
2023-03-15T06:53:51.359Z,0.80
2023-03-15T06:56:19.123Z,0.70
2023-03-15T06:58:46.290Z,0.67
2023-03-15T07:01:14.830Z,0.90
2023-03-15T07:03:42.644Z,0.87
2023-03-15T07:06:10.149Z,0.70
2023-03-15T07:08:37.490Z,0.93
2023-03-15T07:11:04.970Z,1.00
2023-03-15T07:13:32.430Z,1.00
2023-03-15T07:15:59.613Z,0.80
2023-03-15T07:18:27.194Z,1.17
2023-03-15T07:21:02.087Z,1.10
2023-03-15T07:23:30.128Z,1.30
2023-03-15T07:25:57.559Z,1.40
2023-03-15T07:28:27.020Z,1.20
2023-03-15T07:30:59.391Z,0.90
2023-03-15T07:33:27.705Z,0.80
2023-03-15T07:35:55.447Z,0.90
2023-03-15T07:38:24.454Z,0.80
2023-03-15T07:40:51.917Z,0.60
2023-03-15T07:43:19.669Z,0.90
2023-03-15T07:45:51.092Z,0.80
2023-03-15T07:48:19.194Z,0.70
2023-03-15T07:50:47.097Z,0.87
2023-03-15T07:53:14.530Z,0.63
2023-03-15T07:55:41.925Z,0.80
2023-03-15T07:58:09.119Z,0.80
2023-03-15T08:00:36.200Z,0.70
2023-03-15T08:03:03.527Z,0.90
2023-03-15T08:05:30.680Z,0.70
2023-03-15T08:07:57.830Z,0.77
2023-03-15T08:10:25.500Z,0.60
2023-03-15T08:12:52.844Z,0.80
2023-03-15T08:15:20.506Z,1.00
2023-03-15T08:17:48.772Z,0.70
2023-03-15T08:20:20.064Z,0.70
2023-03-15T08:22:51.562Z,0.90
2023-03-15T08:25:21.677Z,0.70
2023-03-15T08:27:49.956Z,0.60
2023-03-15T08:30:18.703Z,0.60
2023-03-15T08:32:47.876Z,0.60
2023-03-15T08:35:17.423Z,0.80
2023-03-15T08:37:47.954Z,0.90
2023-03-15T08:40:19.226Z,1.70
2023-03-15T08:42:46.639Z,1.63
2023-03-15T08:45:13.966Z,2.00
2023-03-15T08:47:41.221Z,1.40
2023-03-15T08:50:17.857Z,1.50
2023-03-15T08:52:45.392Z,1.07
2023-03-15T08:55:14.521Z,1.10
2023-03-15T08:57:43.214Z,1.40
2023-03-15T09:00:23.210Z,1.20
2023-03-15T09:02:55.277Z,1.43
2023-03-15T09:05:26.139Z,2.20
2023-03-15T09:07:53.564Z,1.10
2023-03-15T09:10:22.278Z,1.17
2023-03-15T09:12:53.914Z,0.83
2023-03-15T09:15:22.011Z,0.93
2023-03-15T09:17:54.617Z,1.30
2023-03-15T09:20:24.082Z,0.93
2023-03-15T09:22:53.421Z,0.90
2023-03-15T09:25:21.673Z,0.70
2023-03-15T09:27:49.114Z,0.77
2023-03-15T09:30:17.176Z,0.70
2023-03-15T09:32:44.543Z,0.60
2023-03-15T09:35:15.466Z,0.73
2023-03-15T09:37:42.726Z,0.73
2023-03-15T09:40:29.714Z,1.07
2023-03-15T09:43:10.369Z,2.27
2023-03-15T09:45:43.780Z,0.97
2023-03-15T09:48:39.289Z,0.60
2023-03-15T09:51:09.767Z,0.80
2023-03-15T09:53:52.591Z,0.70
2023-03-15T09:56:31.652Z,0.80
2023-03-15T09:59:02.343Z,0.80
2023-03-15T10:01:42.221Z,0.87
2023-03-15T10:04:21.341Z,0.80
2023-03-15T10:06:54.308Z,0.60
2023-03-15T10:09:24.501Z,0.97
2023-03-15T10:12:41.556Z,0.60
2023-03-15T10:15:27.587Z,0.77
2023-03-15T10:18:14.697Z,1.40
2023-03-15T10:20:48.465Z,0.73
2023-03-15T10:23:25.820Z,0.70
2023-03-15T10:25:54.494Z,0.63
2023-03-15T10:28:26.173Z,0.80
2023-03-15T10:30:53.760Z,0.53
2023-03-15T10:33:36.045Z,0.80
2023-03-15T10:36:18.224Z,0.50
2023-03-15T10:38:46.340Z,0.87
2023-03-15T10:41:29.087Z,0.70
2023-03-15T10:44:00.643Z,0.50
2023-03-15T10:46:28.267Z,0.43
2023-03-15T10:49:01.208Z,0.60
2023-03-15T10:51:37.275Z,0.60
2023-03-15T10:54:23.030Z,0.60
2023-03-15T10:57:13.580Z,0.50
2023-03-15T11:00:20.822Z,0.90
2023-03-15T11:02:51.247Z,0.82
2023-03-15T11:05:19.926Z,0.90
2023-03-15T11:07:59.016Z,0.73
2023-03-15T11:10:29.573Z,0.60
2023-03-15T11:13:21.946Z,0.73
2023-03-15T11:15:58.944Z,0.60
2023-03-15T11:18:31.062Z,0.65
2023-03-15T11:20:59.860Z,0.57
2023-03-15T11:23:31.973Z,0.60
2023-03-15T11:25:59.153Z,0.50
2023-03-15T11:28:30.076Z,0.50
2023-03-15T11:31:01.869Z,0.60
2023-03-15T11:34:03.204Z,0.68
2023-03-15T11:36:33.873Z,0.60
2023-03-15T11:39:04.866Z,0.60
2023-03-15T11:41:51.524Z,0.60
2023-03-15T11:44:36.835Z,0.40
2023-03-15T11:47:16.654Z,0.82
2023-03-15T11:49:54.226Z,0.50
2023-03-15T11:52:24.862Z,0.50
2023-03-15T11:54:56.807Z,0.60
2023-03-15T11:57:30.759Z,0.60
2023-03-15T12:00:15.794Z,1.00
2023-03-15T12:03:24.710Z,0.60
2023-03-15T12:05:53.364Z,0.50
2023-03-15T12:08:21.254Z,0.55
2023-03-15T12:10:50.784Z,0.50
2023-03-15T12:13:30.686Z,0.50
2023-03-15T12:15:58.707Z,0.50
2023-03-15T12:18:33.197Z,0.60
2023-03-15T12:21:09.645Z,0.70
2023-03-15T12:23:44.191Z,0.60
2023-03-15T12:26:36.842Z,1.13
2023-03-15T12:29:17.626Z,0.90
2023-03-15T12:31:56.194Z,0.55
2023-03-15T12:34:31.915Z,0.70
2023-03-15T12:37:07.741Z,0.40
2023-03-15T12:40:27.014Z,0.63
2023-03-15T12:42:57.535Z,1.13
2023-03-15T12:45:27.878Z,0.60
2023-03-15T12:47:54.936Z,0.80
2023-03-15T12:50:37.708Z,0.60
2023-03-15T12:53:15.892Z,0.50
2023-03-15T12:55:44.097Z,0.60
2023-03-15T12:58:13.545Z,0.40
2023-03-15T13:00:43.936Z,0.60
2023-03-15T13:03:19.722Z,0.55
2023-03-15T13:06:13.175Z,0.50
2023-03-15T13:09:11.930Z,0.82
2023-03-15T13:11:49.815Z,0.50
2023-03-15T13:14:44.552Z,0.50
2023-03-15T13:17:23.740Z,0.50
2023-03-15T13:20:11.286Z,0.70
2023-03-15T13:22:56.033Z,0.40
2023-03-15T13:25:35.295Z,0.50
2023-03-15T13:28:11.930Z,0.50
2023-03-15T13:30:52.566Z,0.40
2023-03-15T13:33:21.058Z,0.47
2023-03-15T13:35:58.199Z,0.40
2023-03-15T13:38:32.805Z,1.00
2023-03-15T13:41:05.113Z,1.15
2023-03-15T13:43:36.516Z,0.50
2023-03-15T13:46:04.358Z,0.60
2023-03-15T13:48:34.407Z,0.50
2023-03-15T13:51:28.024Z,0.60
2023-03-15T13:54:07.257Z,0.50
2023-03-15T13:56:48.762Z,0.60
2023-03-15T13:59:17.770Z,0.50
2023-03-15T14:01:45.259Z,0.60
2023-03-15T14:04:18.736Z,0.50
2023-03-15T14:06:46.873Z,0.63
2023-03-15T14:09:32.256Z,0.50
2023-03-15T14:12:15.725Z,0.70
2023-03-15T14:14:51.522Z,0.77
2023-03-15T14:17:27.450Z,0.50
2023-03-15T14:19:57.186Z,0.55
2023-03-15T14:22:25.060Z,0.70
2023-03-15T14:24:52.945Z,0.93
2023-03-15T14:27:21.375Z,0.50
2023-03-15T14:29:54.990Z,0.77
2023-03-15T14:32:38.777Z,0.65
2023-03-15T14:35:08.180Z,0.90
2023-03-15T14:37:41.653Z,0.73
2023-03-15T14:40:38.741Z,1.48
2023-03-15T14:43:08.207Z,0.85
2023-03-15T14:45:37.751Z,1.02
2023-03-15T14:48:14.980Z,0.90
2023-03-15T14:50:44.464Z,0.90
2023-03-15T14:53:20.185Z,0.85
2023-03-15T14:55:47.642Z,1.15
2023-03-15T14:58:17.471Z,0.70
2023-03-15T15:00:47.961Z,1.20
2023-03-15T15:03:51.469Z,0.60
2023-03-15T15:06:18.643Z,0.70
2023-03-15T15:08:47.756Z,0.50
2023-03-15T15:11:15.618Z,0.77
2023-03-15T15:13:42.872Z,0.68
2023-03-15T15:16:10.488Z,0.73
2023-03-15T15:18:38.394Z,0.70
2023-03-15T15:21:13.675Z,0.90
2023-03-15T15:23:56.727Z,0.70
2023-03-15T15:26:27.074Z,0.77
2023-03-15T15:28:54.294Z,0.85
2023-03-15T15:31:23.982Z,1.10
2023-03-15T15:33:53.076Z,0.75
2023-03-15T15:36:27.347Z,0.60
2023-03-15T15:38:55.754Z,1.65
2023-03-15T15:41:28.653Z,1.35
2023-03-15T15:43:55.920Z,0.90
2023-03-15T15:46:24.134Z,1.08
2023-03-15T15:48:52.409Z,1.35
2023-03-15T15:51:42.407Z,1.60
2023-03-15T15:54:25.886Z,2.20
2023-03-15T15:56:56.827Z,1.75
2023-03-15T15:59:27.521Z,1.30
2023-03-15T16:02:01.073Z,1.23
2023-03-15T16:04:30.159Z,1.50
2023-03-15T16:07:01.737Z,1.17
2023-03-15T16:09:31.043Z,1.42
2023-03-15T16:12:05.142Z,1.25
2023-03-15T16:14:32.982Z,1.20
2023-03-15T16:17:00.064Z,0.80
2023-03-15T16:19:27.360Z,0.95
2023-03-15T16:21:54.633Z,1.23
2023-03-15T16:24:34.778Z,0.90
2023-03-15T16:27:05.661Z,1.00
2023-03-15T16:29:39.377Z,1.23
2023-03-15T16:36:21.195Z,0.90
2023-03-15T16:38:48.742Z,0.73
2023-03-15T16:41:17.229Z,1.13
2023-03-15T16:43:47.250Z,0.90
2023-03-15T16:46:17.721Z,1.08
2023-03-15T16:48:45.533Z,0.95
2023-03-15T16:51:16.166Z,1.10
2023-03-15T16:53:45.266Z,1.90
2023-03-15T16:56:14.579Z,1.70
2023-03-15T16:58:43.845Z,2.55
2023-03-15T17:01:11.790Z,1.52
2023-03-15T17:07:37.632Z,1.20
2023-03-15T17:10:24.996Z,2.15
2023-03-15T17:12:53.582Z,2.05
2023-03-15T17:15:29.138Z,1.20
2023-03-15T17:17:57.929Z,1.00
2023-03-15T17:20:30.246Z,1.00
2023-03-15T17:23:06.805Z,1.20
2023-03-15T17:25:34.833Z,1.23
2023-03-15T17:28:04.871Z,1.20
2023-03-15T17:30:37.891Z,1.20
2023-03-15T17:33:05.982Z,1.55
2023-03-15T17:35:37.068Z,1.20
2023-03-15T17:38:07.052Z,1.37
2023-03-15T17:40:36.659Z,1.40
2023-03-15T17:43:04.971Z,1.38
2023-03-15T17:45:34.552Z,1.58
2023-03-15T17:48:02.458Z,1.67
2023-03-15T17:50:32.651Z,1.50
2023-03-15T17:53:05.435Z,1.80
2023-03-15T17:55:36.682Z,2.13
2023-03-15T17:58:11.873Z,1.53
2023-03-15T18:00:39.629Z,2.08
2023-03-15T18:03:06.978Z,2.60
2023-03-15T18:05:34.393Z,1.90
2023-03-15T18:08:03.997Z,1.63
2023-03-15T18:10:38.074Z,1.40
2023-03-15T18:13:05.543Z,2.10
2023-03-15T18:15:34.048Z,1.85
2023-03-15T18:18:01.384Z,2.17
2023-03-15T18:20:28.909Z,2.23
2023-03-15T18:22:56.127Z,2.45
2023-03-15T18:25:26.969Z,1.70
2023-03-15T18:27:54.676Z,1.43
2023-03-15T18:30:24.295Z,1.43
2023-03-15T18:32:52.651Z,1.50
2023-03-15T18:35:31.851Z,1.17
2023-03-15T18:37:59.630Z,1.37
2023-03-15T18:40:29.675Z,1.97
2023-03-15T18:42:58.107Z,1.33
2023-03-15T18:45:30.953Z,1.20
2023-03-15T18:48:00.072Z,1.47
2023-03-15T18:50:28.193Z,5.27
2023-03-15T18:52:55.851Z,5.77
2023-03-15T18:55:23.595Z,2.40
2023-03-15T18:57:52.396Z,2.25
2023-03-15T19:00:26.060Z,1.97
2023-03-15T19:02:56.116Z,2.20
2023-03-15T19:05:24.391Z,2.03
2023-03-15T19:07:51.982Z,1.80
2023-03-15T19:10:20.849Z,1.67
2023-03-15T19:12:48.866Z,1.57
2023-03-15T19:15:17.813Z,1.70
2023-03-15T19:17:50.138Z,1.90
2023-03-15T19:20:23.593Z,1.80
2023-03-15T19:22:52.066Z,1.70
2023-03-15T19:25:20.455Z,1.47
2023-03-15T19:27:48.966Z,1.60
2023-03-15T19:30:21.162Z,2.27
2023-03-15T19:32:50.513Z,2.00
2023-03-15T19:35:19.467Z,1.90
2023-03-15T19:37:48.387Z,2.10
2023-03-15T19:40:16.598Z,1.83
2023-03-15T19:42:43.901Z,1.80
2023-03-15T19:45:12.137Z,2.23
2023-03-15T19:47:40.043Z,1.87
2023-03-15T19:50:08.548Z,1.50
2023-03-15T19:52:36.924Z,1.47
2023-03-15T19:55:06.033Z,1.57
2023-03-15T19:57:33.222Z,1.57
2023-03-15T20:00:00.368Z,2.70
2023-03-15T20:02:27.602Z,1.97
2023-03-15T20:04:54.682Z,1.10
2023-03-15T20:07:21.979Z,1.30
2023-03-15T20:09:49.232Z,1.57
2023-03-15T20:12:16.717Z,1.57
2023-03-15T20:14:43.987Z,1.20
2023-03-15T20:17:11.145Z,1.07
2023-03-15T20:19:38.433Z,1.20
2023-03-15T20:22:05.615Z,1.03
2023-03-15T20:24:32.931Z,1.00
2023-03-15T20:27:00.271Z,1.80
2023-03-15T20:29:27.985Z,1.10
2023-03-15T20:31:55.356Z,1.00
2023-03-15T20:34:22.646Z,0.90
2023-03-15T20:36:52.778Z,0.70
2023-03-15T20:39:20.384Z,1.00
2023-03-15T20:41:47.589Z,0.63
2023-03-15T20:44:15.007Z,1.17
2023-03-15T20:46:42.504Z,1.03
2023-03-15T20:49:10.898Z,0.80
2023-03-15T20:51:38.493Z,0.63
2023-03-15T20:54:05.873Z,0.70
2023-03-15T20:56:34.376Z,0.90
2023-03-15T20:59:01.770Z,0.60
2023-03-15T21:01:29.286Z,1.00
2023-03-15T21:03:57.301Z,1.53
2023-03-15T21:06:25.544Z,1.10
2023-03-15T21:08:52.797Z,0.93
2023-03-15T21:11:19.988Z,1.10
2023-03-15T21:13:47.324Z,1.20
2023-03-15T21:16:15.288Z,1.40
2023-03-15T21:18:44.919Z,0.90
2023-03-15T21:21:12.944Z,1.10
2023-03-15T21:23:42.119Z,1.20
2023-03-15T21:26:12.062Z,1.87
2023-03-15T21:28:39.856Z,1.27
2023-03-15T21:31:07.694Z,0.90
2023-03-15T21:33:35.551Z,0.80
2023-03-15T21:36:03.042Z,1.00
2023-03-15T21:38:33.138Z,1.27
2023-03-15T21:41:06.170Z,1.27
2023-03-15T21:43:34.035Z,1.20
2023-03-15T21:46:13.060Z,1.17
2023-03-15T21:48:42.167Z,1.20
2023-03-15T21:51:09.796Z,1.37
2023-03-15T21:53:43.648Z,0.90
2023-03-15T21:56:13.955Z,1.20
2023-03-15T21:58:42.172Z,0.90
2023-03-15T22:01:09.702Z,1.00
2023-03-15T22:03:37.744Z,0.53
2023-03-15T22:06:05.060Z,0.70
2023-03-15T22:08:33.916Z,0.90
2023-03-15T22:11:01.362Z,0.60
2023-03-15T22:13:30.156Z,0.57
2023-03-15T22:15:57.503Z,0.70
2023-03-15T22:18:28.673Z,0.80
2023-03-15T22:20:57.072Z,0.60
2023-03-15T22:23:24.446Z,0.80
2023-03-15T22:25:53.811Z,0.70
2023-03-15T22:28:22.258Z,0.60
2023-03-15T22:30:50.306Z,0.60
2023-03-15T22:33:19.583Z,1.13
2023-03-15T22:35:46.898Z,0.80
2023-03-15T22:38:14.281Z,0.70
2023-03-15T22:40:43.015Z,0.90
2023-03-15T22:43:10.388Z,0.70
2023-03-15T22:45:37.977Z,0.67
2023-03-15T22:48:05.279Z,0.87
2023-03-15T22:50:32.720Z,0.80
2023-03-15T22:52:59.964Z,0.90
2023-03-15T22:55:27.257Z,0.73
2023-03-15T22:57:55.088Z,0.60
2023-03-15T23:00:23.909Z,0.60
2023-03-15T23:02:51.393Z,1.20
2023-03-15T23:05:19.859Z,0.73
2023-03-15T23:07:47.708Z,0.97
2023-03-15T23:10:15.327Z,0.80
2023-03-15T23:12:42.738Z,0.80
2023-03-15T23:15:12.254Z,0.70
2023-03-15T23:17:39.509Z,0.70
2023-03-15T23:20:07.748Z,0.70
2023-03-15T23:22:34.980Z,1.00
2023-03-15T23:25:03.092Z,0.70
2023-03-15T23:27:30.349Z,0.80
2023-03-15T23:38:15.608Z,0.80
2023-03-15T23:40:44.290Z,0.80
2023-03-15T23:43:12.488Z,1.00
2023-03-15T23:45:39.878Z,0.80
2023-03-15T23:48:07.225Z,1.00
2023-03-15T23:50:34.410Z,0.80
2023-03-15T23:53:01.591Z,0.93
2023-03-15T23:55:29.065Z,0.80
2023-03-15T23:57:56.699Z,1.10
